Sidney Richland Municipal Airport
KSDY : now visible

Airfield :











YOU CAN JOIN US ON...

 
LOGIN :

Register | Disclaimer

   EN    FR    IT 

 









Legend :    VFR   Marginal VFR   IFR   Intensive IFR   Very Intensive IFR
Visi :
Ceiling :
>= 8 km
>= 3000ft
5 to 8 km
1000 to 3000 ft
1500m to 5 km
500 to 1000 ft
800 to 1500m
200 to 500 ft
< 800m
< 200 ft
Symbols :   Thunderstorms  Fog  Heavy snow  Heavy precipitations  Wind > 20 kt







- Airport Elevation : 1985 ft


KSDY - Sidney Richland Municipal

CURRENT METAR :
  • 192256Z AUTO VRB06KT 10SM FEW060 BKN120 12/M01 A3007 RMK AO2 SLP199 T01171011

EXPIRED METARs :
  • 192156Z AUTO 06007G15KT 10SM BKN055 OVC110 11/M02 A3008 RMK AO2 SLP205 T01061017
  • 192056Z AUTO 04005KT 10SM BKN060 11/M02 A3010 RMK AO2 SLP208 T01061017 56008

TAF KSDY
Valid from the 19 at 18:00 until the 20 at 18:00 UTC


191733Z 1918/2018 06009KT P6SM SCT050 BKN110
FM200200 VRB06KT P6SM BKN060
FM200500 VRB04KT P6SM SCT080
KZLC FIR / North America



MET'MAP, your aeronautical weather chart ! - Copyright ORBIFLY December 2007 - Disclaimer

ORBIFLY MET'MAP TEAM :

Programming & Development : Alexandra Zaïnal
Concept & Development : Baudouin d'Aumeries
Co-Development & Prog : Marc-Olivier Méhu
Technical & hardware support : Manuel Goepfert

Contact : metmap@orbifly.com




SOURCES & CREDITS :

   NOAA       Earth
Advisory